Time;durP1;ratioP1;P1;durP2;ratioP2;P2;SDS_P1;SDS_P2;PMS_P1;PMS_P2;Temp;Humidity;BMP_temperature;BMP_pressure;BME280_temperature;BME280_humidity;BME280_pressure;Samples;Min_cycle;Max_cycle;Signal;HPM_P1;HPM_P2
2023/12/25 00:02:10;;;;;;;0.32;0.20;;;;;;;;;;5054822;28;20088;-76
2023/12/25 00:04:36;;;;;;;0.10;0.10;;;;;;;;;;5060041;28;20031;-78
2023/12/25 00:07:02;;;;;;;0.40;0.30;;;;;;;;;;5060243;28;20037;-77
2023/12/25 00:09:29;;;;;;;0.20;0.20;;;;;;;;;;5060644;28;20016;-76
2023/12/25 00:11:55;;;;;;;1.38;0.15;;;;;;;;;;5059238;28;20034;-76
2023/12/25 00:14:21;;;;;;;1.35;0.20;;;;;;;;;;5060021;28;20017;-77
2023/12/25 00:16:47;;;;;;;0.20;0.20;;;;;;;;;;5059811;28;20021;-76
2023/12/25 00:19:13;;;;;;;0.15;0.10;;;;;;;;;;5058626;28;20032;-76
2023/12/25 00:21:39;;;;;;;0.20;0.17;;;;;;;;;;5055354;28;20021;-77
2023/12/25 00:24:05;;;;;;;0.20;0.20;;;;;;;;;;5054585;28;20025;-78
2023/12/25 00:26:31;;;;;;;0.60;0.30;;;;;;;;;;5054263;28;20063;-77
2023/12/25 00:28:58;;;;;;;0.32;0.20;;;;;;;;;;5054728;28;20032;-76
2023/12/25 00:31:24;;;;;;;0.45;0.30;;;;;;;;;;5046344;28;20411;-75
2023/12/25 00:33:50;;;;;;;0.10;0.00;;;;;;;;;;5054248;28;20024;-76
2023/12/25 00:36:16;;;;;;;0.05;0.05;;;;;;;;;;5061608;28;20022;-76
2023/12/25 00:38:42;;;;;;;0.20;0.20;;;;;;;;;;5054445;28;20021;-76
2023/12/25 00:41:08;;;;;;;0.30;0.20;;;;;;;;;;5057564;28;20080;-76
2023/12/25 00:43:34;;;;;;;0.60;0.22;;;;;;;;;;5056572;28;20033;-76
2023/12/25 00:46:04;;;;;;;0.40;0.20;;;;;;;;;;5054896;28;20025;-76
2023/12/25 00:48:30;;;;;;;0.10;0.10;;;;;;;;;;5054811;28;20494;-75
2023/12/25 00:50:56;;;;;;;2.45;0.30;;;;;;;;;;5054380;28;20029;-75
2023/12/25 00:53:22;;;;;;;0.40;0.30;;;;;;;;;;5053726;28;20047;-76
2023/12/25 00:55:49;;;;;;;0.20;0.20;;;;;;;;;;5052745;28;20028;-76
2023/12/25 00:58:15;;;;;;;0.30;0.20;;;;;;;;;;5053240;28;20021;-76
2023/12/25 01:00:41;;;;;;;0.22;0.10;;;;;;;;;;5053478;28;20330;-76
2023/12/25 01:03:07;;;;;;;0.10;0.10;;;;;;;;;;5052318;28;20033;-76
2023/12/25 01:05:33;;;;;;;0.10;0.10;;;;;;;;;;5053295;28;20082;-75
2023/12/25 01:07:59;;;;;;;0.40;0.30;;;;;;;;;;5053237;28;20054;-78
2023/12/25 01:10:25;;;;;;;0.20;0.10;;;;;;;;;;5053665;28;20021;-76
2023/12/25 01:12:52;;;;;;;0.20;0.20;;;;;;;;;;5053735;28;20514;-76
2023/12/25 01:15:18;;;;;;;0.40;0.10;;;;;;;;;;5053663;28;20083;-77
2023/12/25 01:17:44;;;;;;;0.28;0.20;;;;;;;;;;5053726;28;20025;-76
2023/12/25 01:20:10;;;;;;;0.20;0.20;;;;;;;;;;5038110;28;20026;-76
2023/12/25 01:22:37;;;;;;;0.20;0.10;;;;;;;;;;5060235;28;20454;-76
2023/12/25 01:25:03;;;;;;;0.22;0.22;;;;;;;;;;5052676;28;20033;-77
2023/12/25 01:27:29;;;;;;;0.20;0.20;;;;;;;;;;5052667;28;20025;-76
2023/12/25 01:29:55;;;;;;;0.20;0.20;;;;;;;;;;5053628;28;20385;-76
2023/12/25 01:32:21;;;;;;;0.10;0.10;;;;;;;;;;5053705;28;20032;-76
2023/12/25 01:34:47;;;;;;;0.20;0.20;;;;;;;;;;5052926;28;20549;-76
2023/12/25 01:37:14;;;;;;;0.43;0.20;;;;;;;;;;5052371;28;20025;-77
2023/12/25 01:39:40;;;;;;;0.20;0.10;;;;;;;;;;5052240;28;20075;-76
2023/12/25 01:42:06;;;;;;;0.68;0.20;;;;;;;;;;5059660;28;20503;-77
2023/12/25 01:44:32;;;;;;;0.20;0.20;;;;;;;;;;5052088;28;20025;-76
2023/12/25 01:46:58;;;;;;;0.20;0.20;;;;;;;;;;5051526;28;20403;-76
2023/12/25 01:49:25;;;;;;;0.10;0.10;;;;;;;;;;5059526;28;20490;-77
2023/12/25 01:51:51;;;;;;;0.13;0.13;;;;;;;;;;5052373;28;20021;-75
2023/12/25 01:54:18;;;;;;;0.05;0.05;;;;;;;;;;5051201;28;20017;-76
2023/12/25 01:56:44;;;;;;;0.50;0.30;;;;;;;;;;5052086;28;20025;-77
2023/12/25 01:59:10;;;;;;;0.30;0.30;;;;;;;;;;5051866;28;20061;-77
2023/12/25 02:01:36;;;;;;;0.45;0.30;;;;;;;;;;5052628;28;20028;-78
2023/12/25 02:04:02;;;;;;;0.20;0.20;;;;;;;;;;5052118;28;20029;-77
2023/12/25 02:06:29;;;;;;;0.40;0.20;;;;;;;;;;5051835;28;20024;-75
2023/12/25 02:08:55;;;;;;;0.40;0.40;;;;;;;;;;5052398;28;20021;-77
2023/12/25 02:11:21;;;;;;;0.25;0.25;;;;;;;;;;5052483;28;20372;-78
2023/12/25 02:13:48;;;;;;;0.10;0.10;;;;;;;;;;5052760;28;20017;-77
2023/12/25 02:16:14;;;;;;;0.30;0.30;;;;;;;;;;5051570;28;20051;-78
2023/12/25 02:18:40;;;;;;;0.10;0.10;;;;;;;;;;5059737;28;20025;-76
2023/12/25 02:21:06;;;;;;;0.68;0.22;;;;;;;;;;5056282;28;20029;-76
2023/12/25 02:23:35;;;;;;;0.10;0.10;;;;;;;;;;5052197;28;20036;-77
2023/12/25 02:26:04;;;;;;;1.95;0.15;;;;;;;;;;5052194;28;20472;-77
2023/12/25 02:28:30;;;;;;;0.98;0.17;;;;;;;;;;5052109;28;20052;-76
2023/12/25 02:30:56;;;;;;;0.10;0.10;;;;;;;;;;5051785;28;20432;-77
2023/12/25 02:33:22;;;;;;;0.38;0.00;;;;;;;;;;5050176;28;20087;-76
2023/12/25 02:35:48;;;;;;;1.00;0.10;;;;;;;;;;5051998;28;20388;-76
2023/12/25 02:38:15;;;;;;;0.43;0.10;;;;;;;;;;5051620;28;20635;-77
2023/12/25 02:40:41;;;;;;;0.20;0.20;;;;;;;;;;5051617;28;20013;-76
2023/12/25 02:43:10;;;;;;;0.17;0.10;;;;;;;;;;5051761;28;20025;-77
2023/12/25 02:45:36;;;;;;;0.30;0.30;;;;;;;;;;5059135;28;20029;-77
2023/12/25 02:48:03;;;;;;;0.30;0.20;;;;;;;;;;5035386;28;20140;-76
2023/12/25 02:50:29;;;;;;;0.40;0.10;;;;;;;;;;5059789;28;20598;-76
2023/12/25 02:52:55;;;;;;;0.70;0.30;;;;;;;;;;5053933;28;20025;-77
2023/12/25 02:55:21;;;;;;;2.38;0.40;;;;;;;;;;5064086;28;20024;-78
2023/12/25 02:57:48;;;;;;;0.20;0.20;;;;;;;;;;5065488;28;20089;-76
2023/12/25 03:00:15;;;;;;;0.28;0.28;;;;;;;;;;5065156;28;20075;-75
2023/12/25 03:02:41;;;;;;;0.20;0.20;;;;;;;;;;5063933;28;20107;-75
2023/12/25 03:05:07;;;;;;;0.10;0.10;;;;;;;;;;5065198;28;20088;-76
2023/12/25 03:07:33;;;;;;;0.10;0.10;;;;;;;;;;5070776;28;20021;-77
2023/12/25 03:09:59;;;;;;;0.45;0.10;;;;;;;;;;5051640;28;20352;-77
2023/12/25 03:12:25;;;;;;;0.15;0.15;;;;;;;;;;5055551;28;20032;-77
2023/12/25 03:14:51;;;;;;;1.10;0.22;;;;;;;;;;5055096;28;20088;-78
2023/12/25 03:17:18;;;;;;;0.70;0.20;;;;;;;;;;5054976;28;20048;-78
2023/12/25 03:19:44;;;;;;;0.93;0.60;;;;;;;;;;5041349;28;20108;-77
2023/12/25 03:22:10;;;;;;;0.43;0.40;;;;;;;;;;5053361;28;20021;-76
2023/12/25 03:24:36;;;;;;;0.13;0.13;;;;;;;;;;5055500;28;20028;-77
2023/12/25 03:27:02;;;;;;;0.10;0.10;;;;;;;;;;5054994;28;20109;-77
2023/12/25 03:29:29;;;;;;;0.30;0.13;;;;;;;;;;5050520;28;20031;-75
2023/12/25 03:31:56;;;;;;;0.13;0.13;;;;;;;;;;5054849;28;20048;-76
2023/12/25 03:34:22;;;;;;;0.47;0.30;;;;;;;;;;5064981;28;20108;-77
2023/12/25 03:36:48;;;;;;;0.40;0.20;;;;;;;;;;5056748;28;20017;-77
2023/12/25 03:39:14;;;;;;;0.13;0.13;;;;;;;;;;5053214;28;20060;-77
2023/12/25 03:41:40;;;;;;;0.20;0.20;;;;;;;;;;5055173;28;20025;-77
2023/12/25 03:44:06;;;;;;;0.55;0.10;;;;;;;;;;5054772;28;20063;-77
2023/12/25 03:46:32;;;;;;;1.00;0.30;;;;;;;;;;5054553;28;20032;-78
2023/12/25 03:48:58;;;;;;;0.17;0.17;;;;;;;;;;5054830;28;20029;-77
2023/12/25 03:51:24;;;;;;;0.17;0.10;;;;;;;;;;5054882;28;20025;-77
2023/12/25 03:53:51;;;;;;;0.20;0.10;;;;;;;;;;5055403;28;20017;-77
2023/12/25 03:56:17;;;;;;;0.15;0.10;;;;;;;;;;5054155;28;20107;-77
2023/12/25 03:58:44;;;;;;;0.30;0.20;;;;;;;;;;5054818;28;20029;-77
2023/12/25 04:01:10;;;;;;;0.15;0.15;;;;;;;;;;5054166;28;20435;-77
2023/12/25 04:03:37;;;;;;;0.10;0.10;;;;;;;;;;5055166;28;20047;-77
2023/12/25 04:06:03;;;;;;;0.15;0.15;;;;;;;;;;5070139;28;20492;-78
2023/12/25 04:08:29;;;;;;;0.38;0.20;;;;;;;;;;5054169;28;20503;-77
2023/12/25 04:10:55;;;;;;;0.20;0.17;;;;;;;;;;5054130;28;20029;-77
2023/12/25 04:13:21;;;;;;;0.30;0.05;;;;;;;;;;5055311;28;20021;-76
2023/12/25 04:15:47;;;;;;;0.90;0.20;;;;;;;;;;5053905;28;20021;-77
2023/12/25 04:18:13;;;;;;;1.05;0.17;;;;;;;;;;5053607;28;20341;-78
2023/12/25 04:20:39;;;;;;;1.45;0.45;;;;;;;;;;5053657;28;20025;-77
2023/12/25 04:23:06;;;;;;;0.50;0.30;;;;;;;;;;5053958;28;20032;-77
2023/12/25 04:25:32;;;;;;;0.10;0.10;;;;;;;;;;5053879;28;20017;-75
2023/12/25 04:27:58;;;;;;;0.10;0.10;;;;;;;;;;5054997;28;20027;-76
2023/12/25 04:30:24;;;;;;;0.17;0.17;;;;;;;;;;5055396;28;20025;-76
2023/12/25 04:32:50;;;;;;;0.50;0.50;;;;;;;;;;5053695;28;20028;-77
2023/12/25 04:35:17;;;;;;;0.10;0.10;;;;;;;;;;5053706;28;20029;-75
2023/12/25 04:37:43;;;;;;;0.85;0.20;;;;;;;;;;5053525;28;20066;-76
2023/12/25 04:40:09;;;;;;;0.60;0.30;;;;;;;;;;5053127;28;20457;-76
2023/12/25 04:42:35;;;;;;;1.55;0.20;;;;;;;;;;5053721;28;20525;-77
2023/12/25 04:45:01;;;;;;;0.20;0.20;;;;;;;;;;5053978;28;20029;-77
2023/12/25 04:47:27;;;;;;;6.13;0.30;;;;;;;;;;5043789;28;20388;-77
2023/12/25 04:49:53;;;;;;;0.30;0.10;;;;;;;;;;5053049;28;20029;-77
2023/12/25 04:52:20;;;;;;;0.10;0.10;;;;;;;;;;5053344;28;20032;-77
2023/12/25 04:54:46;;;;;;;0.40;0.20;;;;;;;;;;5054042;28;20400;-78
2023/12/25 04:57:12;;;;;;;0.32;0.30;;;;;;;;;;5061386;28;20106;-77
2023/12/25 04:59:38;;;;;;;0.20;0.20;;;;;;;;;;5053587;28;20446;-76
2023/12/25 05:02:04;;;;;;;0.20;0.20;;;;;;;;;;5054059;28;20021;-76
2023/12/25 05:04:31;;;;;;;0.47;0.20;;;;;;;;;;5045034;28;20473;-77
2023/12/25 05:06:58;;;;;;;0.70;0.22;;;;;;;;;;5051527;28;20021;-78
2023/12/25 05:09:24;;;;;;;0.63;0.20;;;;;;;;;;5052743;28;20075;-76
2023/12/25 05:11:50;;;;;;;1.55;0.32;;;;;;;;;;5047349;28;20013;-77
2023/12/25 05:14:16;;;;;;;1.13;0.30;;;;;;;;;;5052410;28;20440;-78
2023/12/25 05:16:42;;;;;;;0.57;0.30;;;;;;;;;;5052511;28;20025;-76
2023/12/25 05:19:10;;;;;;;1.20;0.20;;;;;;;;;;5052509;28;20025;-77
2023/12/25 05:21:36;;;;;;;0.00;0.00;;;;;;;;;;5052749;28;20021;-76
2023/12/25 05:24:02;;;;;;;0.10;0.10;;;;;;;;;;5052703;28;20487;-77
2023/12/25 05:26:28;;;;;;;0.20;0.20;;;;;;;;;;5052207;28;20094;-77
2023/12/25 05:28:54;;;;;;;0.10;0.10;;;;;;;;;;5052778;28;20476;-75
2023/12/25 05:31:21;;;;;;;0.20;0.20;;;;;;;;;;5052561;28;20381;-75
2023/12/25 05:33:47;;;;;;;0.30;0.30;;;;;;;;;;5052886;28;20028;-77
2023/12/25 05:36:13;;;;;;;1.00;0.30;;;;;;;;;;5052764;28;20036;-77
2023/12/25 05:38:40;;;;;;;0.40;0.30;;;;;;;;;;5056009;28;20024;-75
2023/12/25 05:41:08;;;;;;;0.30;0.30;;;;;;;;;;5054026;28;20078;-78
2023/12/25 05:43:34;;;;;;;0.15;0.15;;;;;;;;;;5052437;28;20079;-77
2023/12/25 05:46:00;;;;;;;1.17;0.17;;;;;;;;;;5052335;28;20049;-77
2023/12/25 05:48:26;;;;;;;0.45;0.20;;;;;;;;;;5059484;28;20094;-77
2023/12/25 05:50:52;;;;;;;1.23;0.38;;;;;;;;;;5054317;28;20191;-77
2023/12/25 05:53:18;;;;;;;0.57;0.20;;;;;;;;;;5059667;28;20025;-76
2023/12/25 05:55:44;;;;;;;0.28;0.10;;;;;;;;;;5067273;28;20021;-75
2023/12/25 05:58:10;;;;;;;0.20;0.13;;;;;;;;;;5067962;28;20025;-77
2023/12/25 06:00:37;;;;;;;0.32;0.30;;;;;;;;;;5057357;28;20025;-76
2023/12/25 06:03:03;;;;;;;0.35;0.25;;;;;;;;;;5052266;28;20135;-78
2023/12/25 06:05:29;;;;;;;0.30;0.22;;;;;;;;;;5053819;28;20040;-77
2023/12/25 06:07:55;;;;;;;0.88;0.52;;;;;;;;;;5052594;28;20048;-77
2023/12/25 06:10:22;;;;;;;1.33;0.38;;;;;;;;;;5057020;28;20040;-75
2023/12/25 06:12:48;;;;;;;2.50;0.30;;;;;;;;;;5056831;28;20074;-76
2023/12/25 06:15:14;;;;;;;0.10;0.10;;;;;;;;;;5056035;28;20025;-76
2023/12/25 06:17:40;;;;;;;0.52;0.20;;;;;;;;;;5055263;28;20025;-76
2023/12/25 06:20:10;;;;;;;0.98;0.17;;;;;;;;;;5056458;28;20021;-76
2023/12/25 06:22:36;;;;;;;0.30;0.22;;;;;;;;;;5053460;28;20029;-76
2023/12/25 06:25:03;;;;;;;0.32;0.10;;;;;;;;;;5053950;28;20025;-78
2023/12/25 06:27:29;;;;;;;0.90;0.25;;;;;;;;;;5051359;28;20032;-77
2023/12/25 06:29:55;;;;;;;0.45;0.20;;;;;;;;;;5052121;28;20037;-76
2023/12/25 06:32:21;;;;;;;0.35;0.35;;;;;;;;;;5052077;28;20021;-77
2023/12/25 06:34:47;;;;;;;1.08;0.22;;;;;;;;;;5052086;28;20514;-77
2023/12/25 06:37:14;;;;;;;0.10;0.10;;;;;;;;;;5051559;28;20021;-77
2023/12/25 06:39:40;;;;;;;0.70;0.25;;;;;;;;;;5053233;28;20495;-77
2023/12/25 06:42:06;;;;;;;0.52;0.30;;;;;;;;;;5056021;28;20108;-77
2023/12/25 06:44:32;;;;;;;0.82;0.30;;;;;;;;;;5055515;28;20507;-77
2023/12/25 06:46:58;;;;;;;0.20;0.20;;;;;;;;;;5055352;28;20472;-77
2023/12/25 06:49:24;;;;;;;0.20;0.20;;;;;;;;;;5047311;28;20039;-78
2023/12/25 06:51:50;;;;;;;0.30;0.20;;;;;;;;;;5055636;28;20494;-78
2023/12/25 06:54:16;;;;;;;3.28;0.20;;;;;;;;;;5055799;28;20029;-78
2023/12/25 06:56:44;;;;;;;0.43;0.15;;;;;;;;;;5055205;28;20025;-78
2023/12/25 06:59:10;;;;;;;0.43;0.30;;;;;;;;;;5063509;28;20033;-76
2023/12/25 07:01:36;;;;;;;0.30;0.28;;;;;;;;;;5065862;28;20104;-76
2023/12/25 07:04:02;;;;;;;0.22;0.22;;;;;;;;;;5064449;28;20059;-77
2023/12/25 07:06:28;;;;;;;0.85;0.20;;;;;;;;;;5063963;28;20048;-76
2023/12/25 07:08:54;;;;;;;0.30;0.13;;;;;;;;;;5065817;28;20025;-77
2023/12/25 07:11:21;;;;;;;0.28;0.17;;;;;;;;;;5064065;28;20021;-76
2023/12/25 07:13:47;;;;;;;0.15;0.15;;;;;;;;;;5056258;28;20033;-77
2023/12/25 07:16:23;;;;;;;0.45;0.28;;;;;;;;;;5055356;28;20037;-76
2023/12/25 07:18:50;;;;;;;0.60;0.22;;;;;;;;;;5055720;28;20479;-77
2023/12/25 07:21:16;;;;;;;2.20;0.40;;;;;;;;;;5038586;28;20072;-76
2023/12/25 07:23:43;;;;;;;0.85;0.25;;;;;;;;;;5055146;28;20033;-77
2023/12/25 07:26:09;;;;;;;0.40;0.30;;;;;;;;;;5055033;28;20032;-78
2023/12/25 07:28:35;;;;;;;0.63;0.20;;;;;;;;;;5055227;28;20455;-77
2023/12/25 07:31:01;;;;;;;1.98;0.85;;;;;;;;;;5055198;28;20074;-77
2023/12/25 07:33:27;;;;;;;0.55;0.30;;;;;;;;;;5054830;28;20078;-77
2023/12/25 07:35:54;;;;;;;0.20;0.20;;;;;;;;;;5054883;28;20013;-78
2023/12/25 07:38:22;;;;;;;0.30;0.30;;;;;;;;;;5054603;28;20021;-77
2023/12/25 07:40:50;;;;;;;1.45;0.47;;;;;;;;;;5055080;28;20414;-77
2023/12/25 07:43:16;;;;;;;0.20;0.20;;;;;;;;;;5055483;28;20028;-77
2023/12/25 07:45:42;;;;;;;1.13;0.60;;;;;;;;;;5054667;28;20029;-77
2023/12/25 07:48:08;;;;;;;0.22;0.22;;;;;;;;;;5053645;28;20484;-76
2023/12/25 07:50:34;;;;;;;0.95;0.40;;;;;;;;;;5044773;28;20383;-77
2023/12/25 07:53:00;;;;;;;0.43;0.30;;;;;;;;;;5054474;28;20287;-77
2023/12/25 07:55:27;;;;;;;0.13;0.13;;;;;;;;;;5054749;28;20031;-76
2023/12/25 07:57:53;;;;;;;0.20;0.20;;;;;;;;;;5054579;28;20028;-77
2023/12/25 08:00:20;;;;;;;0.30;0.30;;;;;;;;;;5054252;28;20108;-78
2023/12/25 08:02:46;;;;;;;0.30;0.30;;;;;;;;;;5054483;28;20025;-77
2023/12/25 08:05:12;;;;;;;0.30;0.22;;;;;;;;;;5054487;28;20475;-76
2023/12/25 08:07:38;;;;;;;0.85;0.20;;;;;;;;;;5053831;28;20028;-77
2023/12/25 08:10:04;;;;;;;0.35;0.20;;;;;;;;;;5054218;28;20021;-76
2023/12/25 08:12:30;;;;;;;0.50;0.50;;;;;;;;;;5055243;28;20086;-77
2023/12/25 08:14:56;;;;;;;1.85;0.45;;;;;;;;;;5054869;28;20472;-76
2023/12/25 08:17:23;;;;;;;0.45;0.40;;;;;;;;;;5054304;28;20047;-76
2023/12/25 08:19:49;;;;;;;0.52;0.40;;;;;;;;;;5054761;28;20044;-77
2023/12/25 08:22:15;;;;;;;3.40;0.50;;;;;;;;;;5054786;28;20442;-75
2023/12/25 08:24:41;;;;;;;0.82;0.50;;;;;;;;;;5055010;28;20036;-76
2023/12/25 08:27:07;;;;;;;0.65;0.30;;;;;;;;;;5054497;28;20476;-76
2023/12/25 08:29:33;;;;;;;0.32;0.30;;;;;;;;;;5053985;28;20361;-78
2023/12/25 08:31:59;;;;;;;0.38;0.30;;;;;;;;;;5047623;28;20032;-77
2023/12/25 08:34:25;;;;;;;0.80;0.50;;;;;;;;;;5055922;28;20393;-76
2023/12/25 08:36:52;;;;;;;0.30;0.20;;;;;;;;;;5054414;28;20013;-77
2023/12/25 08:39:18;;;;;;;0.50;0.50;;;;;;;;;;5053795;28;20460;-78
2023/12/25 08:41:44;;;;;;;0.68;0.40;;;;;;;;;;5054259;28;20028;-77
2023/12/25 08:44:10;;;;;;;0.52;0.40;;;;;;;;;;5053789;28;20624;-77
2023/12/25 08:46:36;;;;;;;1.30;0.65;;;;;;;;;;5049069;28;20022;-77
2023/12/25 08:49:02;;;;;;;0.60;0.40;;;;;;;;;;5053166;28;20511;-77
2023/12/25 08:51:29;;;;;;;0.65;0.60;;;;;;;;;;5053853;28;20048;-78
2023/12/25 08:53:55;;;;;;;0.30;0.30;;;;;;;;;;5053623;28;20482;-76
2023/12/25 08:56:26;;;;;;;0.55;0.55;;;;;;;;;;5052839;28;20056;-75
2023/12/25 08:58:52;;;;;;;0.32;0.20;;;;;;;;;;5053440;28;20104;-78
2023/12/25 09:01:18;;;;;;;0.45;0.30;;;;;;;;;;5053866;28;20093;-75
2023/12/25 09:03:44;;;;;;;1.55;0.40;;;;;;;;;;5056083;28;20523;-76
2023/12/25 09:06:12;;;;;;;1.60;0.45;;;;;;;;;;5054400;28;20028;-78
2023/12/25 09:08:39;;;;;;;0.68;0.40;;;;;;;;;;5040789;22;20049;-80
2023/12/25 09:11:05;;;;;;;0.50;0.50;;;;;;;;;;5018323;28;20036;-81
2023/12/25 09:13:31;;;;;;;0.73;0.50;;;;;;;;;;5019705;28;20045;-81
2023/12/25 09:15:57;;;;;;;0.30;0.30;;;;;;;;;;5020461;28;20399;-79
2023/12/25 09:18:26;;;;;;;0.63;0.40;;;;;;;;;;5012770;28;20045;-79
2023/12/25 09:20:52;;;;;;;0.38;0.35;;;;;;;;;;4999564;28;20023;-81
2023/12/25 09:23:18;;;;;;;0.52;0.30;;;;;;;;;;4997426;28;20092;-81
2023/12/25 09:25:44;;;;;;;0.30;0.30;;;;;;;;;;4999514;28;20032;-81
2023/12/25 09:28:12;;;;;;;0.80;0.50;;;;;;;;;;4996416;28;20026;-82
2023/12/25 09:30:39;;;;;;;0.98;0.50;;;;;;;;;;4988979;28;20022;-81
2023/12/25 09:33:05;;;;;;;1.52;0.57;;;;;;;;;;5012149;28;20019;-80
2023/12/25 09:35:31;;;;;;;1.20;0.50;;;;;;;;;;5013226;28;20424;-80
2023/12/25 09:37:57;;;;;;;0.40;0.40;;;;;;;;;;5002248;28;20037;-80
2023/12/25 09:40:23;;;;;;;0.60;0.60;;;;;;;;;;5001759;28;20026;-81
2023/12/25 09:42:50;;;;;;;0.20;0.20;;;;;;;;;;5006750;28;20023;-80
2023/12/25 09:45:19;;;;;;;0.50;0.40;;;;;;;;;;5006317;28;20019;-81
2023/12/25 09:47:47;;;;;;;0.32;0.32;;;;;;;;;;5006148;28;20450;-80
2023/12/25 09:50:14;;;;;;;0.32;0.32;;;;;;;;;;5008793;28;20092;-80
2023/12/25 09:52:40;;;;;;;0.75;0.50;;;;;;;;;;5006622;28;20006;-82
2023/12/25 09:55:08;;;;;;;0.52;0.40;;;;;;;;;;5004778;28;20038;-81
2023/12/25 09:57:36;;;;;;;0.73;0.50;;;;;;;;;;5005620;28;20033;-82
2023/12/25 10:00:05;;;;;;;0.55;0.38;;;;;;;;;;5004648;28;20113;-81
2023/12/25 10:02:33;;;;;;;0.30;0.30;;;;;;;;;;5004761;28;20109;-81
2023/12/25 10:04:59;;;;;;;0.52;0.43;;;;;;;;;;5005105;28;20370;-82
2023/12/25 10:07:25;;;;;;;0.55;0.50;;;;;;;;;;5005228;28;20019;-82
2023/12/25 10:09:55;;;;;;;0.30;0.30;;;;;;;;;;5009718;28;20115;-81
2023/12/25 10:12:22;;;;;;;0.50;0.50;;;;;;;;;;5005218;28;20105;-80
2023/12/25 10:14:48;;;;;;;0.30;0.30;;;;;;;;;;5005977;28;20481;-81
2023/12/25 10:17:15;;;;;;;0.73;0.40;;;;;;;;;;5008441;28;20044;-81
2023/12/25 10:19:57;;;;;;;0.40;0.40;;;;;;;;;;5024429;28;20030;-80
2023/12/25 10:22:33;;;;;;;0.30;0.30;;;;;;;;;;5018231;28;20026;-81
2023/12/25 10:25:06;;;;;;;0.63;0.40;;;;;;;;;;5013458;28;20034;-81
2023/12/25 10:27:39;;;;;;;0.32;0.32;;;;;;;;;;5008879;28;20046;-82
2023/12/25 10:30:17;;;;;;;0.30;0.30;;;;;;;;;;5022414;28;20006;-82
2023/12/25 10:32:43;;;;;;;0.38;0.38;;;;;;;;;;5018915;28;20026;-81
2023/12/25 10:35:14;;;;;;;0.38;0.28;;;;;;;;;;5008486;28;20413;-81
2023/12/25 10:37:42;;;;;;;0.30;0.30;;;;;;;;;;5012530;28;20026;-81
2023/12/25 10:40:18;;;;;;;0.90;0.30;;;;;;;;;;5024670;28;20062;-81
2023/12/25 10:42:48;;;;;;;0.52;0.47;;;;;;;;;;5006706;28;20077;-80
2023/12/25 10:45:18;;;;;;;0.20;0.20;;;;;;;;;;5011155;28;20046;-80
2023/12/25 10:47:46;;;;;;;0.40;0.40;;;;;;;;;;5007707;28;20042;-81
2023/12/25 10:50:12;;;;;;;0.68;0.40;;;;;;;;;;5004763;28;20030;-81
2023/12/25 10:52:40;;;;;;;0.45;0.40;;;;;;;;;;5010201;28;20022;-81
2023/12/25 10:55:08;;;;;;;0.60;0.60;;;;;;;;;;5018558;28;20019;-80
2023/12/25 10:57:34;;;;;;;1.00;0.50;;;;;;;;;;5023244;28;20104;-80
2023/12/25 11:00:04;;;;;;;0.82;0.68;;;;;;;;;;5012915;28;20396;-81
2023/12/25 11:02:33;;;;;;;0.32;0.30;;;;;;;;;;5022963;28;20121;-80
2023/12/25 11:05:00;;;;;;;0.20;0.20;;;;;;;;;;5008550;28;20471;-80
2023/12/25 11:07:26;;;;;;;3.22;0.65;;;;;;;;;;5015287;28;20057;-79
2023/12/25 11:09:54;;;;;;;0.20;0.20;;;;;;;;;;5020652;28;20045;-80
2023/12/25 11:12:20;;;;;;;0.20;0.20;;;;;;;;;;5007252;28;20322;-81
2023/12/25 11:14:47;;;;;;;0.40;0.40;;;;;;;;;;5007142;28;20041;-80
2023/12/25 11:17:13;;;;;;;0.68;0.45;;;;;;;;;;5004806;28;20109;-80
2023/12/25 11:19:39;;;;;;;0.30;0.30;;;;;;;;;;5007859;28;20022;-81
2023/12/25 11:22:25;;;;;;;0.20;0.20;;;;;;;;;;5007458;28;20074;-80
2023/12/25 11:24:51;;;;;;;0.22;0.22;;;;;;;;;;5019497;28;20057;-81
2023/12/25 11:27:18;;;;;;;0.35;0.30;;;;;;;;;;5015883;28;20038;-81
2023/12/25 11:29:50;;;;;;;0.43;0.43;;;;;;;;;;5018599;28;20090;-81
2023/12/25 11:32:20;;;;;;;0.90;0.32;;;;;;;;;;5019246;28;20018;-81
2023/12/25 11:34:49;;;;;;;0.30;0.30;;;;;;;;;;5018379;28;20110;-80
2023/12/25 11:37:21;;;;;;;0.57;0.50;;;;;;;;;;5016401;28;20054;-80
2023/12/25 11:39:57;;;;;;;1.50;0.80;;;;;;;;;;5018550;28;20122;-80
2023/12/25 11:42:24;;;;;;;0.50;0.40;;;;;;;;;;5019724;28;20050;-80
2023/12/25 11:44:55;;;;;;;0.50;0.50;;;;;;;;;;5023009;28;20018;-80
2023/12/25 11:47:43;;;;;;;1.05;0.50;;;;;;;;;;5018272;28;20027;-80
2023/12/25 11:50:15;;;;;;;0.47;0.47;;;;;;;;;;5013016;28;20096;-82
2023/12/25 11:52:45;;;;;;;0.38;0.38;;;;;;;;;;5011935;28;20014;-80
2023/12/25 11:55:15;;;;;;;0.68;0.50;;;;;;;;;;5011783;28;20030;-83
2023/12/25 11:57:49;;;;;;;0.40;0.40;;;;;;;;;;5030811;28;20037;-82
2023/12/25 12:00:32;;;;;;;0.30;0.30;;;;;;;;;;5040769;28;20054;-83
2023/12/25 12:02:58;;;;;;;0.43;0.38;;;;;;;;;;5026430;28;20053;-79
2023/12/25 12:05:27;;;;;;;0.40;0.38;;;;;;;;;;5010657;28;20069;-86
2023/12/25 12:07:53;;;;;;;1.20;0.50;;;;;;;;;;5011501;28;20205;-81
2023/12/25 12:10:19;;;;;;;0.40;0.40;;;;;;;;;;5012080;28;20062;-81
2023/12/25 12:12:46;;;;;;;4.25;0.38;;;;;;;;;;5014173;28;20014;-84
2023/12/25 12:15:12;;;;;;;0.30;0.30;;;;;;;;;;5012022;28;20038;-82
2023/12/25 12:17:40;;;;;;;0.40;0.32;;;;;;;;;;5012679;28;20029;-81
2023/12/25 12:20:07;;;;;;;0.30;0.30;;;;;;;;;;5046348;28;20061;-80
2023/12/25 12:22:34;;;;;;;0.40;0.40;;;;;;;;;;5014532;28;20145;-83
2023/12/25 12:25:13;;;;;;;0.85;0.22;;;;;;;;;;5012176;28;20065;-82
2023/12/25 12:27:39;;;;;;;0.70;0.40;;;;;;;;;;5012970;28;20026;-83
2023/12/25 12:30:06;;;;;;;0.55;0.52;;;;;;;;;;5013721;28;20006;-82
2023/12/25 12:32:32;;;;;;;0.82;0.55;;;;;;;;;;5012046;28;20049;-82
2023/12/25 12:34:59;;;;;;;0.55;0.45;;;;;;;;;;5012817;28;20026;-82
2023/12/25 12:37:25;;;;;;;0.40;0.30;;;;;;;;;;5010473;28;20033;-80
2023/12/25 12:39:52;;;;;;;1.95;0.63;;;;;;;;;;5013861;28;20027;-81
2023/12/25 12:42:19;;;;;;;0.52;0.50;;;;;;;;;;5013612;28;20023;-81
2023/12/25 12:44:48;;;;;;;3.58;1.48;;;;;;;;;;5014023;28;20046;-81
2023/12/25 12:47:14;;;;;;;1.17;1.08;;;;;;;;;;5013699;28;20027;-82
2023/12/25 12:49:41;;;;;;;1.77;0.70;;;;;;;;;;5012575;28;20080;-82
2023/12/25 12:52:07;;;;;;;0.30;0.30;;;;;;;;;;5013150;28;20053;-82
2023/12/25 12:54:33;;;;;;;0.95;0.80;;;;;;;;;;5014252;28;20062;-82
2023/12/25 12:56:59;;;;;;;1.63;0.68;;;;;;;;;;5012889;28;20089;-83
2023/12/25 12:59:25;;;;;;;1.27;0.57;;;;;;;;;;5010226;28;20094;-84
2023/12/25 13:01:51;;;;;;;0.60;0.60;;;;;;;;;;5011453;28;20034;-82
2023/12/25 13:04:19;;;;;;;1.08;0.63;;;;;;;;;;5015543;28;20026;-83
2023/12/25 13:06:46;;;;;;;0.90;0.60;;;;;;;;;;5009376;28;20041;-82
2023/12/25 13:09:12;;;;;;;0.63;0.50;;;;;;;;;;5010113;28;20026;-81
2023/12/25 13:11:38;;;;;;;0.98;0.63;;;;;;;;;;5011662;28;20030;-80
2023/12/25 13:14:04;;;;;;;6.53;0.82;;;;;;;;;;5008875;28;20061;-81
2023/12/25 13:16:30;;;;;;;0.75;0.60;;;;;;;;;;5007898;28;20029;-81
2023/12/25 13:18:59;;;;;;;1.33;0.80;;;;;;;;;;5016739;28;20169;-82
2023/12/25 13:21:25;;;;;;;0.95;0.57;;;;;;;;;;5008042;28;20022;-82
2023/12/25 13:23:51;;;;;;;1.05;0.65;;;;;;;;;;5009208;28;20026;-82
2023/12/25 13:26:17;;;;;;;0.95;0.70;;;;;;;;;;5008763;28;20109;-83
2023/12/25 13:28:43;;;;;;;0.65;0.60;;;;;;;;;;5008583;28;20050;-83
2023/12/25 13:31:09;;;;;;;2.00;1.23;;;;;;;;;;5010215;28;20030;-85
2023/12/25 13:33:39;;;;;;;1.15;0.80;;;;;;;;;;5016430;28;20038;-85
2023/12/25 13:36:06;;;;;;;0.77;0.70;;;;;;;;;;5014422;28;20091;-82
2023/12/25 13:38:32;;;;;;;1.10;0.98;;;;;;;;;;5010107;28;20030;-82
2023/12/25 13:40:58;;;;;;;1.40;0.70;;;;;;;;;;5016407;28;20027;-83
2023/12/25 13:43:24;;;;;;;0.77;0.77;;;;;;;;;;5017256;28;20054;-82
2023/12/25 13:45:50;;;;;;;0.80;0.80;;;;;;;;;;5013477;28;20078;-85
2023/12/25 13:48:16;;;;;;;1.10;0.47;;;;;;;;;;5005393;28;20496;-81
2023/12/25 13:50:42;;;;;;;1.02;0.50;;;;;;;;;;5000452;28;20025;-81
2023/12/25 13:53:08;;;;;;;0.50;0.40;;;;;;;;;;5002728;28;20035;-82
2023/12/25 13:55:37;;;;;;;0.82;0.60;;;;;;;;;;5000717;28;20034;-82
2023/12/25 13:58:03;;;;;;;0.57;0.55;;;;;;;;;;5006068;28;20375;-82
2023/12/25 14:00:29;;;;;;;0.77;0.70;;;;;;;;;;5007386;28;20034;-82
2023/12/25 14:02:55;;;;;;;0.60;0.55;;;;;;;;;;5010339;28;20026;-83
2023/12/25 14:05:23;;;;;;;1.00;0.73;;;;;;;;;;5014146;28;20030;-83
2023/12/25 14:07:49;;;;;;;0.47;0.40;;;;;;;;;;5009216;28;20317;-81
2023/12/25 14:10:15;;;;;;;0.50;0.40;;;;;;;;;;5008716;28;20062;-82
2023/12/25 14:12:41;;;;;;;0.50;0.50;;;;;;;;;;5008937;28;20087;-82
2023/12/25 14:15:08;;;;;;;0.90;0.57;;;;;;;;;;5008938;28;20094;-83
2023/12/25 14:17:34;;;;;;;0.63;0.50;;;;;;;;;;5012110;28;20026;-83
2023/12/25 14:20:00;;;;;;;1.75;0.57;;;;;;;;;;5013773;28;20037;-82
2023/12/25 14:22:26;;;;;;;1.05;0.80;;;;;;;;;;5011243;28;20058;-81
2023/12/25 14:24:52;;;;;;;1.45;0.60;;;;;;;;;;5008226;28;20114;-81
2023/12/25 14:27:18;;;;;;;1.08;0.77;;;;;;;;;;5023970;28;20030;-81
2023/12/25 14:29:44;;;;;;;0.85;0.85;;;;;;;;;;5014374;28;20054;-81
2023/12/25 14:32:10;;;;;;;1.10;0.75;;;;;;;;;;5006487;28;20141;-81
2023/12/25 14:34:36;;;;;;;1.27;0.90;;;;;;;;;;5004258;28;20061;-80
2023/12/25 14:37:02;;;;;;;3.03;0.73;;;;;;;;;;5005934;28;20029;-81
2023/12/25 14:39:29;;;;;;;1.02;0.80;;;;;;;;;;5010052;28;20034;-81
2023/12/25 14:41:55;;;;;;;0.73;0.55;;;;;;;;;;5005736;28;20034;-80